Time;durP1;ratioP1;P1;durP2;ratioP2;P2;SDS_P1;SDS_P2;PMS_P1;PMS_P2;Temp;Humidity;BMP_temperature;BMP_pressure;BME280_temperature;BME280_humidity;BME280_pressure;Samples;Min_cycle;Max_cycle;Signal;HPM_P1;HPM_P2
2022/10/07 00:01:04;;;;;;;10.85;5.70;;;;;;;9.81;79.69;100452.38;1630752;88;21018;-78
2022/10/07 00:03:34;;;;;;;13.90;6.00;;;;;;;9.74;79.43;100450.22;1632104;87;20988;-78
2022/10/07 00:06:12;;;;;;;14.45;6.05;;;;;;;9.71;80.21;100449.80;1636077;88;21578;-79
2022/10/07 00:08:43;;;;;;;15.75;6.60;;;;;;;9.67;79.32;100453.67;1626808;88;21045;-77
2022/10/07 00:11:17;;;;;;;15.32;7.10;;;;;;;9.64;80.11;100451.95;1657658;85;21038;-77
2022/10/07 00:13:46;;;;;;;13.13;6.53;;;;;;;9.62;79.17;100461.91;1662574;85;21109;-77
2022/10/07 00:16:19;;;;;;;11.85;5.72;;;;;;;9.56;79.78;100453.68;1629745;88;21039;-77
2022/10/07 00:18:47;;;;;;;14.87;6.07;;;;;;;9.53;79.92;100451.95;1631671;87;21062;-77
2022/10/07 00:21:17;;;;;;;17.23;6.37;;;;;;;9.51;80.30;100447.20;1642043;85;20997;-77
2022/10/07 00:23:47;;;;;;;15.65;7.42;;;;;;;9.46;81.45;100446.31;1630735;86;21535;-78
2022/10/07 00:26:19;;;;;;;17.30;7.05;;;;;;;9.42;80.19;100448.91;1632369;88;21471;-77
2022/10/07 00:28:49;;;;;;;11.28;6.25;;;;;;;9.44;81.28;100452.38;1669977;85;21025;-76
2022/10/07 00:31:25;;;;;;;12.70;7.05;;;;;;;9.45;81.19;100453.69;1628122;88;21018;-78
2022/10/07 00:33:55;;;;;;;14.93;6.92;;;;;;;9.50;81.88;100451.08;1671685;85;21025;-77
2022/10/07 00:36:33;;;;;;;13.75;6.45;;;;;;;9.53;81.78;100444.61;1629642;86;20999;-77
2022/10/07 00:39:07;;;;;;;15.48;6.25;;;;;;;9.58;81.81;100439.41;1674730;85;21501;-78
2022/10/07 00:41:39;;;;;;;14.30;6.92;;;;;;;9.59;81.43;100444.61;1628141;88;21023;-78
2022/10/07 00:44:34;;;;;;;13.45;6.50;;;;;;;9.55;81.04;100445.47;1632266;88;21021;-78
2022/10/07 00:47:12;;;;;;;18.65;6.65;;;;;;;9.56;81.53;100436.80;1632050;86;21081;-77
2022/10/07 00:49:50;;;;;;;15.28;6.80;;;;;;;9.59;81.23;100438.13;1648984;87;21009;-79
2022/10/07 00:52:22;;;;;;;13.48;5.83;;;;;;;9.51;80.55;100435.52;1648134;87;21012;-78
2022/10/07 00:54:52;;;;;;;12.35;5.95;;;;;;;9.45;80.43;100439.81;1644776;86;21005;-77
2022/10/07 00:57:25;;;;;;;12.13;5.97;;;;;;;9.38;79.81;100440.69;1641488;87;21029;-77
2022/10/07 00:59:54;;;;;;;15.30;5.72;;;;;;;9.30;80.06;100438.94;1644798;86;20985;-77
2022/10/07 01:02:26;;;;;;;13.45;5.60;;;;;;;9.28;80.60;100439.37;1643933;86;20982;-78
2022/10/07 01:04:57;;;;;;;11.10;5.70;;;;;;;9.21;80.13;100447.13;1631645;87;21088;-77
2022/10/07 01:07:26;;;;;;;15.08;5.87;;;;;;;9.13;81.25;100444.52;1645632;86;21029;-77
2022/10/07 01:09:58;;;;;;;9.65;5.28;;;;;;;9.10;81.87;100443.23;1644248;87;21001;-79
2022/10/07 01:13:02;;;;;;;13.10;6.20;;;;;;;9.09;82.42;100437.59;1639271;87;21028;-78
2022/10/07 01:15:54;;;;;;;13.80;5.72;;;;;;;9.08;81.66;100432.84;1634987;87;21001;-78
2022/10/07 01:18:48;;;;;;;12.30;5.78;;;;;;;9.11;82.15;100435.87;1639599;87;21009;-78
2022/10/07 01:21:45;;;;;;;16.35;6.30;;;;;;;9.11;82.41;100434.16;1641167;87;21001;-77
2022/10/07 01:24:36;;;;;;;12.93;6.15;;;;;;;9.12;82.58;100434.58;1644534;87;21025;-78
2022/10/07 01:27:17;;;;;;;10.90;5.97;;;;;;;9.14;81.70;100435.45;1644776;86;21576;-78
2022/10/07 01:29:56;;;;;;;12.55;6.05;;;;;;;9.13;82.34;100440.22;1640815;87;21052;-79
2022/10/07 01:32:44;;;;;;;11.63;6.55;;;;;;;9.13;81.58;100432.84;1671547;85;21036;-78
2022/10/07 01:35:17;;;;;;;14.35;5.90;;;;;;;9.12;81.84;100432.42;1650515;86;21020;-78
2022/10/07 01:37:53;;;;;;;11.68;5.75;;;;;;;9.09;82.27;100437.59;1657236;86;21063;-78
2022/10/07 01:40:29;;;;;;;10.78;5.75;;;;;;;9.04;82.72;100432.84;1649545;86;21141;-77
2022/10/07 01:42:58;;;;;;;12.60;6.45;;;;;;;9.04;83.01;100436.30;1657072;86;21050;-76
2022/10/07 01:45:29;;;;;;;16.30;5.97;;;;;;;9.04;83.40;100433.70;1659841;85;20976;-77
2022/10/07 01:47:58;;;;;;;11.85;5.75;;;;;;;9.03;82.01;100434.98;1656370;86;21085;-77
2022/10/07 01:50:28;;;;;;;21.60;6.30;;;;;;;9.00;82.72;100431.10;1652878;86;21049;-78
2022/10/07 01:53:11;;;;;;;11.65;5.35;;;;;;;8.96;83.18;100441.45;1697421;84;21528;-79
2022/10/07 01:56:15;;;;;;;10.00;5.35;;;;;;;8.95;83.33;100427.17;1679714;85;21576;-79
2022/10/07 01:59:25;;;;;;;15.20;6.33;;;;;;;8.86;83.92;100434.52;1670008;85;21497;-79
2022/10/07 02:02:24;;;;;;;12.00;6.08;;;;;;;8.83;83.91;100431.89;1678676;85;21136;-78
2022/10/07 02:05:18;;;;;;;15.35;7.53;;;;;;;8.82;82.71;100435.80;1682301;85;21560;-78
2022/10/07 02:08:14;;;;;;;21.87;6.25;;;;;;;8.78;84.00;100437.95;1697158;84;20945;-78
2022/10/07 02:11:13;;;;;;;10.98;5.95;;;;;;;8.74;83.39;100445.70;1675455;84;21020;-76
2022/10/07 02:13:57;;;;;;;13.38;5.30;;;;;;;8.71;84.32;100438.34;1673521;85;21085;-76
2022/10/07 02:16:55;;;;;;;19.30;5.40;;;;;;;8.64;84.17;100441.34;1681606;85;21573;-80
2022/10/07 02:19:38;;;;;;;10.20;5.15;;;;;;;8.58;83.97;100440.02;1661565;86;21062;-82
2022/10/07 02:22:08;;;;;;;12.07;5.03;;;;;;;8.55;84.46;100431.81;1659506;86;21027;-80
2022/10/07 02:24:38;;;;;;;9.35;5.22;;;;;;;8.50;84.65;100438.69;1662942;86;21081;-79
2022/10/07 02:27:11;;;;;;;9.60;4.92;;;;;;;8.48;84.29;100444.30;1661155;86;20985;-77
2022/10/07 02:29:42;;;;;;;13.88;5.22;;;;;;;8.43;83.93;100434.76;1663956;86;21013;-78
2022/10/07 02:32:15;;;;;;;14.78;5.60;;;;;;;8.35;83.95;100443.31;1662549;86;21646;-78
2022/10/07 02:34:45;;;;;;;11.75;5.12;;;;;;;8.32;83.93;100452.38;1664215;85;21033;-79
2022/10/07 02:37:25;;;;;;;16.73;5.95;;;;;;;8.27;85.32;100447.59;1654437;86;21109;-78
2022/10/07 02:39:55;;;;;;;14.47;5.40;;;;;;;8.27;85.23;100454.50;1665988;86;21589;-77
2022/10/07 02:42:47;;;;;;;19.30;5.45;;;;;;;8.27;84.12;100446.73;1657052;86;21023;-78
2022/10/07 02:45:29;;;;;;;13.68;5.60;;;;;;;8.24;85.01;100462.27;1669397;86;21095;-78
2022/10/07 02:48:03;;;;;;;11.63;5.67;;;;;;;8.26;84.67;100459.27;1657297;86;21034;-78
2022/10/07 02:50:38;;;;;;;15.93;6.62;;;;;;;8.27;84.44;100458.39;1649257;87;21059;-77
2022/10/07 02:53:07;;;;;;;12.33;5.60;;;;;;;8.23;85.15;100454.91;1646793;87;21031;-79
2022/10/07 02:55:35;;;;;;;12.45;6.50;;;;;;;8.28;84.42;100451.07;1649562;86;21045;-77
2022/10/07 02:58:07;;;;;;;15.13;6.05;;;;;;;8.25;85.42;100457.08;1643498;87;21072;-79
2022/10/07 03:00:41;;;;;;;11.48;5.00;;;;;;;8.26;85.64;100446.31;1626015;87;21070;-79
2022/10/07 03:03:10;;;;;;;14.23;6.12;;;;;;;8.26;85.37;100450.20;1643836;87;21006;-79
2022/10/07 03:05:47;;;;;;;17.67;6.00;;;;;;;8.26;85.10;100448.90;1640798;87;21070;-79
2022/10/07 03:08:15;;;;;;;10.50;5.95;;;;;;;8.28;85.49;100447.19;1642926;87;21038;-79
2022/10/07 03:10:43;;;;;;;14.33;5.35;;;;;;;8.33;85.05;100446.77;1649325;87;21046;-78
2022/10/07 03:13:14;;;;;;;11.57;6.08;;;;;;;8.31;84.90;100451.07;1645309;86;21022;-77
2022/10/07 03:15:44;;;;;;;15.18;5.75;;;;;;;8.34;85.08;100453.69;1645097;87;21538;-79
2022/10/07 03:18:26;;;;;;;12.30;5.87;;;;;;;8.38;85.04;100456.73;1645291;86;21031;-78
2022/10/07 03:20:58;;;;;;;14.78;5.72;;;;;;;8.40;85.05;100452.43;1651878;87;20998;-77
2022/10/07 03:23:28;;;;;;;13.98;6.65;;;;;;;8.42;84.87;100457.23;1643049;87;21062;-76
2022/10/07 03:25:58;;;;;;;14.53;6.97;;;;;;;8.45;84.51;100452.04;1649357;86;21060;-77
2022/10/07 03:28:28;;;;;;;14.43;6.67;;;;;;;8.44;84.25;100451.62;1643747;87;21018;-77
2022/10/07 03:31:05;;;;;;;13.48;6.03;;;;;;;8.44;84.12;100451.62;1646494;86;21571;-77
2022/10/07 03:33:34;;;;;;;12.40;6.15;;;;;;;8.40;83.96;100447.69;1645037;87;21424;-78
2022/10/07 03:36:07;;;;;;;15.93;6.40;;;;;;;8.30;84.07;100446.33;1647847;87;21083;-77
2022/10/07 03:38:35;;;;;;;12.03;6.53;;;;;;;8.30;84.36;100440.28;1646973;87;21466;-78
2022/10/07 03:41:05;;;;;;;11.48;5.53;;;;;;;8.28;84.31;100448.48;1651476;87;21053;-78
2022/10/07 03:43:32;;;;;;;21.77;5.70;;;;;;;8.25;84.01;100445.42;1646357;87;21497;-78
2022/10/07 03:46:01;;;;;;;9.90;5.30;;;;;;;8.23;84.28;100447.57;1640920;87;21130;-79
2022/10/07 03:48:30;;;;;;;11.25;5.87;;;;;;;8.16;84.09;100447.53;1644799;86;21059;-79
2022/10/07 03:50:58;;;;;;;11.68;6.17;;;;;;;8.10;84.15;100442.32;1652453;86;21062;-79
2022/10/07 03:53:28;;;;;;;14.47;6.33;;;;;;;8.04;83.98;100437.50;1651078;86;20974;-78
2022/10/07 03:55:57;;;;;;;12.93;6.08;;;;;;;8.00;84.80;100437.94;1651424;86;21017;-77
2022/10/07 03:58:24;;;;;;;10.65;5.47;;;;;;;7.97;84.66;100436.61;1651553;86;21052;-77
2022/10/07 04:01:05;;;;;;;14.38;5.87;;;;;;;7.95;85.45;100435.73;1644369;87;21050;-78
2022/10/07 04:03:33;;;;;;;18.40;6.40;;;;;;;7.94;84.37;100430.98;1653056;86;21504;-77
2022/10/07 04:06:02;;;;;;;12.05;6.28;;;;;;;7.92;85.87;100430.55;1666792;86;21021;-78
2022/10/07 04:08:32;;;;;;;16.87;5.95;;;;;;;7.94;85.10;100428.84;1650592;87;21483;-78
2022/10/07 04:11:02;;;;;;;14.73;6.72;;;;;;;7.94;85.38;100425.81;1643473;87;21011;-77
2022/10/07 04:13:30;;;;;;;13.20;6.25;;;;;;;7.96;85.64;100433.59;1650098;86;21027;-78
2022/10/07 04:16:07;;;;;;;15.03;6.00;;;;;;;8.01;85.55;100435.77;1648507;86;20971;-79
2022/10/07 04:18:35;;;;;;;14.53;6.62;;;;;;;8.02;85.37;100433.64;1642764;87;21526;-79
2022/10/07 04:21:03;;;;;;;19.57;6.70;;;;;;;8.02;86.00;100434.93;1644165;87;21010;-78
2022/10/07 04:23:33;;;;;;;15.50;6.40;;;;;;;8.04;86.21;100434.52;1651048;87;20983;-78
2022/10/07 04:26:08;;;;;;;18.42;6.92;;;;;;;8.04;86.37;100434.52;1646506;86;21010;-79
2022/10/07 04:28:36;;;;;;;17.00;7.30;;;;;;;8.05;86.56;100434.94;1650866;87;21034;-78
2022/10/07 04:31:08;;;;;;;14.85;7.53;;;;;;;8.03;85.83;100430.61;1645636;87;21768;-77
2022/10/07 04:33:39;;;;;;;13.55;7.00;;;;;;;7.95;85.84;100431.41;1638658;86;21015;-77
2022/10/07 04:36:11;;;;;;;17.00;6.50;;;;;;;7.89;86.12;100430.08;1646960;85;21497;-78
2022/10/07 04:38:51;;;;;;;11.88;5.78;;;;;;;7.87;85.81;100430.49;1667777;85;21086;-78
2022/10/07 04:41:21;;;;;;;22.70;7.12;;;;;;;7.85;86.49;100427.03;1665689;86;21010;-78
2022/10/07 04:43:50;;;;;;;14.30;7.15;;;;;;;7.83;86.06;100430.47;1657999;85;20967;-77
2022/10/07 04:46:19;;;;;;;13.90;6.35;;;;;;;7.81;86.53;100432.18;1687710;84;21005;-79
2022/10/07 04:48:48;;;;;;;11.70;6.50;;;;;;;7.78;86.28;100435.62;1660540;84;21025;-78
2022/10/07 04:51:18;;;;;;;17.12;6.72;;;;;;;7.79;85.95;100430.87;1634462;87;21084;-78
2022/10/07 04:53:51;;;;;;;17.17;7.97;;;;;;;7.74;86.00;100435.16;1653148;87;20992;-79
2022/10/07 04:56:21;;;;;;;18.92;6.33;;;;;;;7.73;86.43;100435.56;1662598;86;21012;-78
2022/10/07 04:58:49;;;;;;;13.00;6.97;;;;;;;7.76;87.14;100440.78;1655932;85;21016;-78
2022/10/07 05:01:17;;;;;;;15.83;7.45;;;;;;;7.75;86.81;100448.09;1637649;87;20989;-78
2022/10/07 05:03:46;;;;;;;13.93;7.28;;;;;;;7.77;87.31;100440.34;1631768;87;21566;-77
2022/10/07 05:06:15;;;;;;;18.75;7.35;;;;;;;7.82;86.41;100435.19;1660815;85;20961;-79
2022/10/07 05:08:43;;;;;;;16.23;7.45;;;;;;;7.88;86.79;100432.68;1659707;85;21008;-77
2022/10/07 05:11:12;;;;;;;16.80;7.22;;;;;;;7.96;87.40;100437.48;1609082;88;21043;-79
2022/10/07 05:13:45;;;;;;;12.10;6.53;;;;;;;8.01;87.56;100436.20;1630318;87;21018;-78
2022/10/07 05:16:13;;;;;;;9.63;5.92;;;;;;;8.07;86.38;100433.22;1651893;87;20964;-77
2022/10/07 05:18:41;;;;;;;15.30;7.12;;;;;;;8.14;87.00;100437.59;1631479;88;21057;-79
2022/10/07 05:21:10;;;;;;;11.93;6.25;;;;;;;8.22;86.55;100438.08;1631560;88;21062;-77
2022/10/07 05:23:40;;;;;;;17.50;6.80;;;;;;;8.29;86.75;100434.21;1631110;88;21041;-78
2022/10/07 05:26:12;;;;;;;16.50;7.28;;;;;;;8.37;86.85;100448.52;1629596;88;21033;-78
2022/10/07 05:28:41;;;;;;;17.05;6.60;;;;;;;8.47;86.73;100446.44;1632653;88;21049;-80
2022/10/07 05:31:12;;;;;;;14.95;7.20;;;;;;;8.54;86.54;100450.80;1629236;88;21038;-77
2022/10/07 05:33:41;;;;;;;22.62;7.90;;;;;;;8.63;86.36;100456.45;1608581;88;21053;-79
2022/10/07 05:36:11;;;;;;;14.23;7.55;;;;;;;8.72;86.41;100451.31;1626886;86;21084;-78
2022/10/07 05:38:39;;;;;;;13.53;6.22;;;;;;;8.82;86.37;100451.36;1635297;88;21123;-77
2022/10/07 05:41:09;;;;;;;17.48;6.50;;;;;;;8.93;86.19;100448.35;1627894;88;21063;-78
2022/10/07 05:43:45;;;;;;;16.37;7.53;;;;;;;9.00;85.60;100454.45;1609387;88;21018;-77
2022/10/07 05:46:19;;;;;;;17.50;7.60;;;;;;;9.04;85.84;100453.16;1626832;88;21038;-77
2022/10/07 05:48:51;;;;;;;16.48;7.12;;;;;;;9.10;85.86;100459.66;1623975;87;21058;-79
2022/10/07 05:51:21;;;;;;;14.30;6.67;;;;;;;9.18;85.44;100462.71;1618441;88;21063;-78
2022/10/07 05:53:54;;;;;;;18.65;7.87;;;;;;;9.15;85.39;100460.55;1598250;89;21043;-78
2022/10/07 05:56:23;;;;;;;15.65;6.92;;;;;;;9.21;85.61;100461.41;1620385;88;21010;-78
2022/10/07 05:58:52;;;;;;;12.10;6.20;;;;;;;9.28;85.75;100465.32;1639464;86;21030;-77
2022/10/07 06:01:22;;;;;;;15.05;7.53;;;;;;;9.38;85.65;100466.64;1658602;85;20970;-78
2022/10/07 06:03:56;;;;;;;18.12;6.50;;;;;;;9.47;85.08;100467.53;1616385;88;21052;-78
2022/10/07 06:06:25;;;;;;;15.83;6.55;;;;;;;9.55;85.57;100465.80;1620320;88;21456;-78
2022/10/07 06:13:06;;;;;;;16.35;6.75;;;;;;;9.67;85.15;100472.73;1636010;86;21045;-78
2022/10/07 06:14:11;;;;;;;13.72;6.40;;;;;;;9.88;85.04;100469.70;1625346;88;21526;-77
2022/10/07 06:16:39;;;;;;;21.30;7.00;;;;;;;9.98;84.92;100467.53;1661115;86;21086;-77
2022/10/07 06:19:21;;;;;;;21.35;7.22;;;;;;;10.11;84.78;100467.95;1616122;87;21061;-79
2022/10/07 06:21:36;;;;;;;17.65;7.60;;;;;;;10.24;84.72;100467.48;1619619;88;21553;-77
2022/10/07 06:24:04;;;;;;;15.75;6.67;;;;;;;10.35;84.20;100463.63;1606532;88;21028;-77
2022/10/07 06:26:34;;;;;;;12.53;6.58;;;;;;;10.44;84.03;100469.22;1613979;88;21014;-78
2022/10/07 06:29:03;;;;;;;12.50;6.33;;;;;;;10.54;83.94;100465.72;1619852;88;21014;-77
2022/10/07 06:31:31;;;;;;;12.65;6.65;;;;;;;10.64;83.54;100472.62;1659804;86;21033;-78
2022/10/07 06:34:01;;;;;;;15.72;6.83;;;;;;;10.71;83.26;100472.19;1621873;87;21079;-77
2022/10/07 06:36:29;;;;;;;11.73;6.17;;;;;;;10.77;83.07;100476.06;1654738;85;21050;-77
2022/10/07 06:38:57;;;;;;;11.73;6.10;;;;;;;10.84;83.03;100473.88;1620985;87;20996;-80
2022/10/07 06:41:27;;;;;;;14.00;6.20;;;;;;;10.94;82.80;100482.06;1625917;87;21549;-77
2022/10/07 06:43:56;;;;;;;15.10;6.12;;;;;;;11.03;82.63;100483.75;1616696;88;21026;-79
2022/10/07 06:46:26;;;;;;;16.20;6.28;;;;;;;11.06;82.10;100483.75;1626075;88;21625;-77
2022/10/07 06:48:55;;;;;;;14.40;6.42;;;;;;;11.10;81.84;100478.95;1619992;88;21990;-77
2022/10/07 06:51:24;;;;;;;14.73;6.28;;;;;;;11.11;81.49;100473.30;1631944;88;21030;-78
2022/10/07 06:53:56;;;;;;;11.57;6.78;;;;;;;11.12;81.61;100471.11;1626158;87;21026;-79
2022/10/07 06:56:24;;;;;;;17.67;7.65;;;;;;;11.19;81.46;100473.27;1658753;86;21026;-81
2022/10/07 06:58:52;;;;;;;12.45;7.08;;;;;;;11.27;81.62;100464.97;1679335;85;21509;-81
2022/10/07 07:01:22;;;;;;;13.98;6.87;;;;;;;11.37;81.53;100469.24;1678750;85;21026;-77
2022/10/07 07:03:50;;;;;;;14.30;7.08;;;;;;;11.46;81.49;100473.52;1662046;86;21009;-79
2022/10/07 07:06:18;;;;;;;13.65;6.72;;;;;;;11.57;81.12;100466.50;1666149;86;21495;-75
2022/10/07 07:08:48;;;;;;;12.88;6.78;;;;;;;11.62;80.98;100473.86;1663639;86;21110;-78
2022/10/07 07:11:35;;;;;;;17.20;6.97;;;;;;;11.69;80.79;100473.36;1645858;85;21052;-76
2022/10/07 07:14:10;;;;;;;13.00;6.30;;;;;;;11.80;80.55;100468.94;1683802;85;20998;-77
2022/10/07 07:16:38;;;;;;;;;;;;;;;11.86;79.92;100466.28;1663763;86;21037;-77
2022/10/07 07:19:10;;;;;;;13.08;5.95;;;;;;;11.88;79.22;100461.06;1668009;86;20661;-78
2022/10/07 07:21:39;;;;;;;11.90;5.85;;;;;;;11.99;79.59;100459.23;1665929;86;21033;-77
2022/10/07 07:24:09;;;;;;;13.45;5.95;;;;;;;12.12;79.42;100462.61;1670417;86;21030;-78
2022/10/07 07:26:39;;;;;;;13.93;5.72;;;;;;;12.24;78.95;100466.84;1658918;86;21014;-75
2022/10/07 07:29:09;;;;;;;11.53;5.17;;;;;;;12.34;78.57;100468.02;1663197;86;21066;-76
2022/10/07 07:31:39;;;;;;;13.70;5.17;;;;;;;12.48;78.62;100461.36;1668350;86;21034;-76
2022/10/07 07:34:11;;;;;;;9.93;5.42;;;;;;;12.62;78.39;100462.95;1673045;86;21062;-78
2022/10/07 07:36:46;;;;;;;18.00;5.85;;;;;;;12.83;78.24;100458.79;1671768;84;21081;-74
2022/10/07 07:39:17;;;;;;;10.45;5.85;;;;;;;12.95;77.38;100462.96;1670831;84;21002;-78
2022/10/07 07:41:46;;;;;;;10.45;5.65;;;;;;;13.10;76.66;100464.07;1667558;84;21816;-77
2022/10/07 07:44:17;;;;;;;10.50;5.75;;;;;;;13.20;76.66;100456.98;1662020;86;21557;-76
2022/10/07 07:46:50;;;;;;;14.03;6.15;;;;;;;13.26;75.16;100462.11;1665607;86;20962;-77
2022/10/07 07:49:20;;;;;;;14.68;6.12;;;;;;;13.40;75.54;100465.00;1674504;84;21093;-77
2022/10/07 07:51:49;;;;;;;12.20;6.62;;;;;;;13.46;74.22;100457.08;1683077;85;21134;-75
2022/10/07 07:54:18;;;;;;;18.17;6.12;;;;;;;13.59;74.55;100456.42;1684249;85;21775;-77
2022/10/07 07:56:47;;;;;;;8.93;5.08;;;;;;;13.70;74.63;100454.52;1684720;84;21021;-77
2022/10/07 07:59:16;;;;;;;13.05;5.45;;;;;;;13.82;73.05;100450.39;1687367;84;21493;-76
2022/10/07 08:01:44;;;;;;;12.47;5.05;;;;;;;13.89;73.61;100451.17;1685026;84;21006;-77
2022/10/07 08:04:14;;;;;;;12.40;5.47;;;;;;;13.87;72.62;100448.58;1661259;85;21396;-77
2022/10/07 08:06:42;;;;;;;8.73;4.97;;;;;;;13.90;72.85;100443.73;1681182;85;21064;-77
2022/10/07 08:09:11;;;;;;;10.35;5.78;;;;;;;13.91;72.70;100451.55;1670847;84;20979;-75
2022/10/07 08:11:44;;;;;;;12.20;5.72;;;;;;;13.92;73.03;100444.11;1688912;85;21083;-77
2022/10/07 08:14:14;;;;;;;12.33;5.55;;;;;;;14.05;72.76;100443.92;1684049;85;20942;-75
2022/10/07 08:16:44;;;;;;;10.63;5.05;;;;;;;14.16;72.34;100445.02;1686892;85;21038;-75
2022/10/07 08:19:12;;;;;;;12.05;5.78;;;;;;;14.25;71.84;100435.70;1682079;85;20984;-75
2022/10/07 08:21:39;;;;;;;11.65;5.35;;;;;;;14.34;71.65;100438.13;1688213;84;21500;-75
2022/10/07 08:24:11;;;;;;;11.70;5.30;;;;;;;14.40;70.47;100431.47;1682552;84;20928;-75
2022/10/07 08:26:39;;;;;;;11.88;5.00;;;;;;;14.47;71.28;100429.16;1643474;87;21035;-75
2022/10/07 08:29:09;;;;;;;9.73;4.65;;;;;;;14.62;69.43;100431.08;1639151;86;21025;-76
2022/10/07 08:31:37;;;;;;;8.68;4.47;;;;;;;14.76;69.32;100429.48;1665346;84;21005;-76
2022/10/07 08:34:05;;;;;;;9.18;4.40;;;;;;;14.89;68.83;100420.03;1693313;84;20992;-79
2022/10/07 08:36:33;;;;;;;9.15;3.67;;;;;;;15.03;69.04;100421.03;1638813;87;21013;-76
2022/10/07 08:39:03;;;;;;;9.78;3.98;;;;;;;15.22;68.57;100416.26;1665556;86;20982;-75
2022/10/07 08:41:51;;;;;;;10.20;3.65;;;;;;;15.40;67.34;100404.91;1663582;86;20991;-76
2022/10/07 08:44:31;;;;;;;10.93;5.60;;;;;;;15.53;66.25;100406.80;1679638;84;21257;-76
2022/10/07 08:47:37;;;;;;;8.20;4.25;;;;;;;15.62;66.15;100404.81;1688051;84;20958;-77
2022/10/07 08:50:24;;;;;;;7.90;4.15;;;;;;;15.80;66.12;100400.05;1661795;85;21045;-76
2022/10/07 08:53:07;;;;;;;6.42;3.87;;;;;;;15.99;65.19;100397.78;1669767;86;21447;-75
2022/10/07 08:55:54;;;;;;;10.27;4.27;;;;;;;16.12;65.56;100394.40;1662306;85;21018;-75
2022/10/07 08:58:42;;;;;;;11.05;4.20;;;;;;;16.26;65.01;100395.72;1666791;86;21011;-76
2022/10/07 09:01:36;;;;;;;8.20;3.92;;;;;;;16.38;64.70;100397.15;1662922;86;21022;-75
2022/10/07 09:04:27;;;;;;;;;;;;;;;16.47;63.70;100392.95;1676396;86;20997;-75
2022/10/07 09:07:11;;;;;;;10.13;4.30;;;;;;;16.61;63.55;100394.30;1657989;86;20149;-75
2022/10/07 09:09:44;;;;;;;8.50;4.20;;;;;;;16.71;63.68;100394.44;1665017;86;21685;-75
2022/10/07 09:12:41;;;;;;;9.58;4.53;;;;;;;16.84;63.18;100387.09;1666981;86;20963;-75
2022/10/07 09:15:19;;;;;;;9.68;3.85;;;;;;;16.98;62.87;100393.25;1648598;85;20993;-76
2022/10/07 09:17:57;;;;;;;12.45;4.42;;;;;;;17.10;63.31;100388.91;1667401;86;20997;-77
2022/10/07 09:20:30;;;;;;;9.83;4.25;;;;;;;17.21;61.35;100388.13;1664574;86;21027;-74
2022/10/07 09:22:58;;;;;;;;;;;;;;;17.19;61.99;100379.44;1669531;86;21029;-75
2022/10/07 09:25:28;;;;;;;10.40;4.45;;;;;;;17.29;60.79;100376.92;1664857;86;20141;-75
2022/10/07 09:27:57;;;;;;;10.03;4.35;;;;;;;17.35;62.00;100372.35;1660134;86;21814;-77
2022/10/07 09:30:31;;;;;;;10.55;3.67;;;;;;;17.45;60.33;100371.17;1671287;85;21602;-75
2022/10/07 09:32:58;;;;;;;;;;;;;;;17.56;62.07;100368.16;1669230;86;21030;-75
2022/10/07 09:35:29;;;;;;;12.35;4.55;;;;;;;17.67;60.31;100369.52;1660411;86;20145;-75
2022/10/07 09:38:02;;;;;;;12.47;4.22;;;;;;;17.78;59.71;100365.66;1665295;86;21045;-76
2022/10/07 09:43:33;;;;;;;11.83;4.25;;;;;;;17.95;60.52;100363.34;1665234;86;21138;-75
2022/10/07 09:46:02;;;;;;;11.28;4.03;;;;;;;17.98;56.23;100355.32;1667875;86;21030;-75
2022/10/07 09:48:33;;;;;;;14.63;5.35;;;;;;;18.04;57.13;100355.09;1661281;84;21069;-73
2022/10/07 09:51:24;;;;;;;10.63;4.37;;;;;;;18.08;58.50;100347.53;1661364;86;21524;-75
2022/10/07 09:54:02;;;;;;;11.40;4.90;;;;;;;18.19;59.90;100344.95;1629211;87;21118;-77
2022/10/07 09:56:40;;;;;;;11.18;4.42;;;;;;;18.27;59.55;100337.16;1653716;85;21456;-76
2022/10/07 09:59:24;;;;;;;13.83;4.72;;;;;;;18.34;56.45;100343.05;1647252;86;21050;-76
2022/10/07 10:02:00;;;;;;;8.63;3.80;;;;;;;18.33;57.40;100333.92;1644411;86;20988;-75
2022/10/07 10:04:35;;;;;;;18.25;4.20;;;;;;;18.23;56.85;100330.77;1645119;86;20997;-77
2022/10/07 10:07:24;;;;;;;10.98;4.45;;;;;;;18.30;57.59;100338.81;1655154;86;21484;-76
2022/10/07 10:09:58;;;;;;;8.80;4.28;;;;;;;18.29;56.07;100335.34;1651959;86;21044;-76
2022/10/07 10:12:26;;;;;;;8.60;3.85;;;;;;;18.17;54.44;100333.16;1655245;86;21048;-75
2022/10/07 10:15:00;;;;;;;6.05;3.42;;;;;;;18.15;55.63;100328.87;1648549;86;21028;-76
2022/10/07 10:17:36;;;;;;;13.10;4.58;;;;;;;18.09;53.87;100328.17;1655071;86;21915;-77
2022/10/07 10:20:38;;;;;;;12.03;4.03;;;;;;;18.11;54.99;100323.33;1660567;86;21461;-76
2022/10/07 10:23:28;;;;;;;13.32;4.00;;;;;;;18.11;54.92;100320.70;1647293;86;21068;-76
2022/10/07 10:26:25;;;;;;;6.70;3.95;;;;;;;18.16;55.97;100316.95;1653688;86;21016;-75
2022/10/07 10:29:36;;;;;;;11.80;4.00;;;;;;;18.16;53.89;100319.59;1611872;88;21047;-76
2022/10/07 10:32:20;;;;;;;13.48;5.50;;;;;;;18.17;55.47;100309.94;1656368;86;20980;-75
2022/10/07 10:34:59;;;;;;;10.25;5.03;;;;;;;18.21;55.80;100308.44;1651369;87;21000;-76
2022/10/07 10:37:44;;;;;;;11.97;5.67;;;;;;;18.22;55.68;100301.40;1672581;85;20982;-74
2022/10/07 10:40:31;;;;;;;9.08;3.77;;;;;;;18.26;56.43;100303.00;1668859;85;20957;-77
2022/10/07 10:43:26;;;;;;;9.13;3.65;;;;;;;18.21;54.81;100297.06;1638135;87;21016;-75
2022/10/07 10:46:30;;;;;;;10.35;4.05;;;;;;;18.24;55.68;100291.67;1649394;86;20978;-76
2022/10/07 10:49:32;;;;;;;;;;;;;;;18.28;55.25;100286.69;1655184;85;21056;-75
2022/10/07 10:52:26;;;;;;;8.73;3.45;;;;;;;18.32;53.82;100279.07;1682304;85;20100;-76
2022/10/07 10:55:00;;;;;;;;;;;;;;;18.23;54.63;100284.70;1654351;85;20974;-76
2022/10/07 10:57:34;;;;;;;;;;;;;;;18.29;55.10;100273.94;1649306;85;20117;-76
2022/10/07 11:00:13;;;;;;;8.88;4.17;;;;;;;18.29;54.73;100269.52;1649771;87;20114;-76
2022/10/07 11:02:55;;;;;;;8.80;3.85;;;;;;;18.31;55.57;100261.58;1620199;87;21068;-75
2022/10/07 11:05:36;;;;;;;12.33;4.57;;;;;;;18.41;55.78;100262.93;1672079;85;21517;-77
2022/10/07 11:08:26;;;;;;;10.25;3.85;;;;;;;18.43;55.04;100260.25;1652397;85;20977;-77
2022/10/07 11:11:10;;;;;;;9.80;4.25;;;;;;;18.39;55.04;100259.50;1628969;85;21011;-75
2022/10/07 11:14:00;;;;;;;8.40;4.20;;;;;;;18.43;55.25;100249.25;1664968;86;21526;-75
2022/10/07 11:16:45;;;;;;;8.18;4.10;;;;;;;18.45;55.05;100252.67;1662454;85;21018;-79
2022/10/07 11:19:35;;;;;;;8.73;4.40;;;;;;;18.39;56.02;100247.66;1665930;85;21006;-77
2022/10/07 11:22:03;;;;;;;6.67;3.77;;;;;;;18.40;55.92;100242.80;1663709;86;21015;-74
2022/10/07 11:24:44;;;;;;;6.87;3.47;;;;;;;18.41;55.68;100242.34;1650870;86;21045;-76
2022/10/07 11:27:29;;;;;;;11.38;3.95;;;;;;;18.46;55.69;100239.05;1664189;86;21046;-76
2022/10/07 11:30:20;;;;;;;9.80;4.03;;;;;;;18.51;56.17;100229.20;1659689;86;21006;-75
2022/10/07 11:32:56;;;;;;;5.55;3.20;;;;;;;18.58;55.57;100237.70;1652295;86;21026;-77
2022/10/07 11:35:42;;;;;;;6.87;3.47;;;;;;;18.66;55.66;100227.72;1652572;86;21045;-75
2022/10/07 11:38:21;;;;;;;7.12;3.45;;;;;;;18.73;55.58;100230.98;1661748;86;21062;-75
2022/10/07 11:41:01;;;;;;;8.85;3.30;;;;;;;18.86;54.27;100222.54;1669574;86;20990;-75
2022/10/07 11:43:49;;;;;;;8.28;3.08;;;;;;;18.91;53.21;100217.07;1665637;86;21049;-75
2022/10/07 11:46:33;;;;;;;6.62;3.58;;;;;;;18.96;54.00;100213.80;1652065;86;21015;-76
2022/10/07 11:49:12;;;;;;;7.70;3.72;;;;;;;18.94;54.06;100202.47;1660888;85;21144;-75
2022/10/07 11:51:52;;;;;;;6.33;3.60;;;;;;;19.02;54.07;100199.48;1645555;85;21081;-75
2022/10/07 11:54:26;;;;;;;8.53;3.60;;;;;;;19.11;53.86;100201.73;1635859;87;21053;-74
2022/10/07 11:56:57;;;;;;;;;;;;;;;19.21;53.53;100198.24;1658689;86;20939;-75
2022/10/07 11:59:33;;;;;;;10.38;5.60;;;;;;;19.38;53.96;100196.20;1663205;85;20485;-75
2022/10/07 12:02:01;;;;;;;9.25;3.47;;;;;;;19.54;52.98;100197.23;1632133;87;21041;-77
2022/10/07 12:04:34;;;;;;;10.70;3.30;;;;;;;19.78;52.66;100198.41;1643219;87;21072;-75
2022/10/07 12:07:37;;;;;;;;;;;;;;;19.97;53.23;100193.97;1649911;86;21474;-76